Primrose, Nebraska
Current Conditions -  °F | °C
As of 8:15 AM on Sunday 25 Jan 2015 (Local Time) from KBVN Reporting Station
Overcast Overcast  
Wind Chill: 26°   Ceiling: 4400
Heat Index: 36°   Visibility: 10mi
Dew Point: 32°   Wind: 15mph
Humidity: 87%   Direction: 340°NNW
Pressure: 29.92"   Gusts: 25mph
Location:  41.62°N, 98.24°W
Report Text: KBVN 251415Z AUTO 34013G22KT 10SM SCT010 BKN044 OVC049 02/00 A2992 RMK AO2 T00200000
Loading
Personal Weather Stations






























Interactive Weather Map New forecast layout! Learn more

10-Day Weather Forecast

Advertisements
Track Severe Weather on mobile